createdAt,value
2022-10-06T00:04:37.957Z,91.84
2022-10-06T00:09:40.599Z,91.94
2022-10-06T00:14:43.083Z,92.00
2022-10-06T00:19:45.590Z,91.90
2022-10-06T00:24:48.001Z,92.05
2022-10-06T00:29:50.721Z,92.10
2022-10-06T00:34:54.007Z,92.18
2022-10-06T00:39:56.397Z,92.49
2022-10-06T00:45:02.672Z,92.43
2022-10-06T00:50:06.095Z,92.66
2022-10-06T00:55:09.359Z,92.65
2022-10-06T01:00:11.964Z,92.46
2022-10-06T01:05:18.987Z,92.66
2022-10-06T01:10:21.624Z,92.58
2022-10-06T01:15:25.406Z,92.71
2022-10-06T01:20:29.403Z,92.54
2022-10-06T01:25:33.256Z,93.34
2022-10-06T01:30:35.640Z,93.30
2022-10-06T01:35:38.237Z,93.58
2022-10-06T01:40:40.634Z,93.16
2022-10-06T01:45:43.015Z,93.03
2022-10-06T01:50:45.586Z,93.06
2022-10-06T01:55:48.499Z,93.71
2022-10-06T02:00:51.064Z,94.07
2022-10-06T02:05:56.155Z,93.93
2022-10-06T02:10:58.565Z,94.08
2022-10-06T02:16:01.025Z,94.55
2022-10-06T02:27:42.201Z,94.30
2022-10-06T02:32:44.720Z,94.23
2022-10-06T02:37:47.648Z,94.38
2022-10-06T02:42:50.178Z,94.65
2022-10-06T02:47:54.043Z,94.50
2022-10-06T02:52:56.966Z,94.04
2022-10-06T02:58:00.140Z,94.42
2022-10-06T03:03:02.636Z,94.81
2022-10-06T03:08:05.092Z,94.64
2022-10-06T03:13:07.521Z,95.41
2022-10-06T03:18:10.003Z,94.89
2022-10-06T03:23:13.632Z,95.29
2022-10-06T03:28:16.969Z,94.79
2022-10-06T03:33:19.511Z,95.15
2022-10-06T03:38:21.915Z,95.36
2022-10-06T03:43:24.327Z,95.51
2022-10-06T03:48:28.226Z,95.22
2022-10-06T03:53:32.107Z,95.40
2022-10-06T03:58:35.985Z,95.66
2022-10-06T04:03:38.540Z,96.46
2022-10-06T04:08:41.490Z,96.99
2022-10-06T04:13:45.144Z,96.71
2022-10-06T04:18:50.046Z,96.32
2022-10-06T04:23:53.882Z,96.28
2022-10-06T04:28:56.310Z,96.66
2022-10-06T04:33:59.637Z,96.68
2022-10-06T04:39:03.592Z,96.40
2022-10-06T04:44:06.315Z,96.76
2022-10-06T04:49:08.714Z,97.78
2022-10-06T04:54:11.318Z,97.86
2022-10-06T04:59:13.717Z,97.26
2022-10-06T05:04:16.138Z,96.96
2022-10-06T05:09:18.538Z,96.57
2022-10-06T05:14:20.967Z,96.28
2022-10-06T05:19:23.363Z,95.71
2022-10-06T05:24:25.895Z,95.86
2022-10-06T05:29:28.500Z,95.83
2022-10-06T05:34:30.919Z,95.60
2022-10-06T05:39:33.334Z,95.13
2022-10-06T05:44:35.783Z,94.95
2022-10-06T05:49:38.176Z,94.66
2022-10-06T05:54:40.628Z,94.48
2022-10-06T05:59:43.305Z,94.31
2022-10-06T06:04:45.861Z,94.18
2022-10-06T06:09:48.350Z,94.12
2022-10-06T06:14:53.806Z,93.62
2022-10-06T06:19:56.649Z,92.96
2022-10-06T06:24:59.116Z,92.63
2022-10-06T06:30:03.938Z,91.60
2022-10-06T06:35:08.923Z,90.82
2022-10-06T06:40:11.438Z,89.96
2022-10-06T06:45:14.740Z,89.50
2022-10-06T06:50:17.246Z,89.40
2022-10-06T06:55:19.911Z,89.08
2022-10-06T07:00:23.464Z,88.30
2022-10-06T07:05:26.177Z,88.20
2022-10-06T07:10:28.681Z,87.33
2022-10-06T07:15:34.049Z,87.08
2022-10-06T07:20:39.451Z,85.93
2022-10-06T07:25:41.984Z,85.65
2022-10-06T07:30:44.859Z,84.83
2022-10-06T07:35:47.297Z,83.64
2022-10-06T07:41:07.625Z,83.45
2022-10-06T07:46:15.102Z,82.69
2022-10-06T07:51:18.704Z,80.69
2022-10-06T07:56:21.329Z,79.30
2022-10-06T08:01:25.534Z,79.73
2022-10-06T08:06:27.970Z,78.05
2022-10-06T08:11:30.663Z,78.60
2022-10-06T08:16:33.155Z,78.72
2022-10-06T08:21:35.606Z,78.40
2022-10-06T08:26:38.832Z,77.59
2022-10-06T08:31:41.384Z,76.82
2022-10-06T08:37:02.199Z,73.88
2022-10-06T08:42:10.613Z,74.00
2022-10-06T08:47:17.638Z,72.69
2022-10-06T08:52:26.515Z,71.20
2022-10-06T08:57:34.132Z,70.41
2022-10-06T09:02:41.783Z,68.71
2022-10-06T09:07:56.189Z,67.90
2022-10-06T09:13:06.717Z,67.54
2022-10-06T09:18:13.245Z,66.63
2022-10-06T09:23:17.303Z,66.67
2022-10-06T09:28:19.946Z,65.48
2022-10-06T09:33:24.790Z,65.31
2022-10-06T09:38:45.332Z,63.95
2022-10-06T09:43:52.295Z,64.67
2022-10-06T09:49:00.923Z,64.59
2022-10-06T09:54:21.990Z,63.93
2022-10-06T09:59:39.830Z,63.41
2022-10-06T10:04:47.262Z,62.13
2022-10-06T10:10:09.926Z,61.84
2022-10-06T10:15:12.313Z,61.76
2022-10-06T10:20:17.720Z,62.61
2022-10-06T10:25:29.388Z,63.34
2022-10-06T10:30:34.243Z,62.86
2022-10-06T10:35:41.653Z,61.65
2022-10-06T10:40:48.040Z,60.27
2022-10-06T10:45:57.194Z,59.19
2022-10-06T10:51:15.901Z,57.97
2022-10-06T10:56:20.388Z,55.71
2022-10-06T11:01:25.777Z,55.55
2022-10-06T11:06:28.152Z,53.80
2022-10-06T11:11:31.512Z,53.58
2022-10-06T11:16:33.950Z,55.76
2022-10-06T11:21:41.348Z,56.37
2022-10-06T11:26:43.712Z,57.44
2022-10-06T11:31:48.277Z,57.46
2022-10-06T11:36:53.641Z,57.72
2022-10-06T11:42:03.571Z,57.39
2022-10-06T11:47:10.303Z,57.06
2022-10-06T11:52:12.687Z,54.40
2022-10-06T11:57:18.008Z,54.36
2022-10-06T12:02:23.405Z,53.51
2022-10-06T12:07:45.762Z,53.74
2022-10-06T12:13:06.193Z,54.66
2022-10-06T12:18:12.743Z,54.68
2022-10-06T12:23:18.067Z,54.71
2022-10-06T12:28:23.420Z,51.89
2022-10-06T12:33:28.793Z,50.67
2022-10-06T12:38:31.190Z,50.41
2022-10-06T12:43:34.820Z,51.24
2022-10-06T12:48:40.325Z,51.12
2022-10-06T12:53:45.649Z,50.88
2022-10-06T12:58:48.149Z,50.57
2022-10-06T13:03:51.136Z,48.79
2022-10-06T13:08:56.467Z,48.69
2022-10-06T13:14:08.583Z,48.34
2022-10-06T13:19:14.872Z,48.62
2022-10-06T13:24:20.408Z,49.82
2022-10-06T13:29:24.938Z,49.08
2022-10-06T13:34:30.035Z,48.41
2022-10-06T13:39:32.830Z,46.02
2022-10-06T13:44:39.749Z,45.73
2022-10-06T13:49:44.140Z,46.70
2022-10-06T13:54:50.405Z,45.19
2022-10-06T13:59:55.867Z,45.83
2022-10-06T14:05:01.906Z,45.91
2022-10-06T14:10:04.816Z,44.63
2022-10-06T14:15:15.941Z,44.33
2022-10-06T14:20:21.335Z,43.58
2022-10-06T14:25:24.922Z,43.57
2022-10-06T14:30:27.470Z,42.32
2022-10-06T14:35:29.989Z,40.77
2022-10-06T14:40:32.440Z,40.31
2022-10-06T14:45:36.241Z,40.92
2022-10-06T14:50:38.752Z,42.28
2022-10-06T14:55:42.350Z,43.47
2022-10-06T15:00:44.856Z,45.12
2022-10-06T15:05:50.460Z,46.25
2022-10-06T15:10:52.968Z,47.46
2022-10-06T15:15:58.072Z,48.33
2022-10-06T15:21:02.761Z,49.19
2022-10-06T15:26:08.841Z,49.83
2022-10-06T15:31:12.238Z,50.41
2022-10-06T15:36:17.339Z,51.22
2022-10-06T15:41:19.974Z,51.67
2022-10-06T15:46:26.796Z,52.36
2022-10-06T15:51:34.648Z,52.95
2022-10-06T15:56:38.059Z,53.88
2022-10-06T16:01:43.661Z,55.01
2022-10-06T16:06:49.221Z,55.73
2022-10-06T16:11:52.322Z,56.38
2022-10-06T16:16:59.830Z,57.73
2022-10-06T16:22:02.319Z,58.55
2022-10-06T16:27:04.738Z,59.07
2022-10-06T16:32:07.197Z,60.00
2022-10-06T16:37:09.744Z,60.60
2022-10-06T16:42:12.151Z,61.69
2022-10-06T16:47:14.645Z,62.13
2022-10-06T16:52:17.064Z,63.22
2022-10-06T16:57:19.697Z,63.85
2022-10-06T17:02:22.098Z,64.96
2022-10-06T17:07:24.543Z,64.87
2022-10-06T17:12:26.953Z,65.30
2022-10-06T17:17:29.374Z,66.39
2022-10-06T17:22:31.778Z,67.86
2022-10-06T17:27:38.350Z,67.64
2022-10-06T17:32:45.012Z,67.77
2022-10-06T17:37:49.900Z,68.78
2022-10-06T17:42:52.334Z,68.74
2022-10-06T17:47:54.798Z,68.85
2022-10-06T17:52:59.293Z,68.87
2022-10-06T17:58:01.703Z,69.53
2022-10-06T18:03:04.090Z,70.56
2022-10-06T18:08:08.733Z,70.46
2022-10-06T18:13:11.135Z,70.77
2022-10-06T18:18:13.598Z,71.11
2022-10-06T18:23:16.556Z,71.42
2022-10-06T18:28:18.983Z,71.91
2022-10-06T18:38:44.857Z,72.88
2022-10-06T18:43:47.437Z,73.18
2022-10-06T18:48:52.840Z,73.98
2022-10-06T18:53:55.771Z,73.71
2022-10-06T18:58:59.083Z,74.13
2022-10-06T19:04:04.729Z,74.53
2022-10-06T19:09:07.197Z,75.22
2022-10-06T19:14:09.849Z,76.03
2022-10-06T19:19:13.759Z,76.68
2022-10-06T19:24:17.646Z,76.74
2022-10-06T19:29:23.496Z,77.14
2022-10-06T19:34:27.418Z,77.19
2022-10-06T19:39:31.642Z,77.06
2022-10-06T19:44:42.784Z,77.11
2022-10-06T19:49:45.677Z,77.64
2022-10-06T19:54:48.104Z,78.00
2022-10-06T19:59:52.690Z,78.19
2022-10-06T20:04:55.084Z,78.59
2022-10-06T20:09:57.477Z,79.33
2022-10-06T20:14:59.861Z,79.29
2022-10-06T20:20:03.066Z,79.25
2022-10-06T20:25:07.159Z,79.08
2022-10-06T20:30:10.662Z,79.19
2022-10-06T20:35:14.676Z,79.33
2022-10-06T20:40:21.473Z,79.54
2022-10-06T20:45:24.123Z,79.21
2022-10-06T20:50:28.451Z,79.43
2022-10-06T20:55:30.864Z,79.80
2022-10-06T21:00:33.282Z,80.13
2022-10-06T21:05:35.683Z,80.09
2022-10-06T21:10:38.100Z,80.07
2022-10-06T21:15:45.049Z,79.84
2022-10-06T21:20:54.651Z,79.94
2022-10-06T21:26:00.899Z,80.21
2022-10-06T21:31:04.198Z,80.22
2022-10-06T21:36:07.917Z,80.51
2022-10-06T21:41:31.460Z,80.68
2022-10-06T21:46:36.943Z,80.72
2022-10-06T21:51:40.218Z,80.76
2022-10-06T21:56:43.026Z,81.26
2022-10-06T22:01:46.072Z,81.03
2022-10-06T22:13:28.276Z,81.51
2022-10-06T22:18:32.782Z,81.54
2022-10-06T22:23:35.200Z,81.41
2022-10-06T22:28:37.843Z,81.65
2022-10-06T22:33:40.637Z,81.58
2022-10-06T22:38:43.028Z,81.70
2022-10-06T22:43:45.507Z,81.91
2022-10-06T22:48:47.920Z,82.15
2022-10-06T22:53:57.300Z,82.42
2022-10-06T22:59:01.105Z,82.40
2022-10-06T23:04:03.653Z,82.44
2022-10-06T23:09:06.071Z,83.03
2022-10-06T23:14:08.546Z,83.34
2022-10-06T23:19:11.105Z,83.86
2022-10-06T23:24:13.607Z,83.78
2022-10-06T23:29:15.995Z,84.01
2022-10-06T23:34:18.442Z,84.17
2022-10-06T23:39:20.871Z,84.56
2022-10-06T23:44:23.353Z,84.37
2022-10-06T23:49:25.773Z,84.57
2022-10-06T23:54:28.244Z,84.63
2022-10-06T23:59:31.461Z,84.42
